Terminal Aerodrome Forecast
Issued by NWS Amarillo, TX

Home | Current Version | Previous Version | Text Only | Print | Product List | Glossary On
Versions: 1 2 3 4 5 6 7 8 9 10 11 12 13 14 15 16 17 18 19
000
FTUS44 KAMA 291200 AAA
TAFAMA
TAF AMD
KAMA 291209Z 2912/3012 25004KT P6SM FEW050
     FM291400 36007KT P6SM FEW080
     FM300100 18005KT P6SM FEW100=

USA.gov is the U.S. government's official web portal to all federal, state and local government web resources and services.